No se requiere un especial cuidado respecto a la situación meteorológica.   -   No hay avisos

Informes METAR

 

LEZL - Sevilla, Spain
Distancia de la estación: ENE 8km
Actualización: 15/11/2018 05:00
Despejado
Despejado
 Viento de N
Viento: N 6 km/h
Temperatura: 14°C
Rocío: 13°C
Humedad: 94%
Barómetro: 1013 hPa
Resumen: Despejado
Visibilidad: mayor de 10 km
2018/11/15 04:00 LEZL 150400Z 36003KT 320V020 CAVOK 14/13 Q1013 NOSIG
LEMO - Morón, Spain
Distancia de la estación: SE 43km
Actualización: 15/11/2018 05:00
Despejado
Despejado
 Viento de variable
Viento: variable 4 km/h
Temperatura: 12°C
Rocío: 10°C
Humedad: 88%
Barómetro: 1013 hPa
Resumen: Despejado
Visibilidad: mayor de 10 km
2018/11/15 04:00 LEMO 150400Z VRB02KT CAVOK 12/10 Q1013 NOSIG
LEJR - Jeréz, Spain
Distancia de la estación: S 71km
Actualización: 15/11/2018 05:00
Despejado
Despejado
 Viento de variable
Viento: variable 2 km/h
Temperatura: 12°C
Rocío: 11°C
Humedad: 94%
Barómetro: 1013 hPa
Nubes: Despejado
Visibilidad: 10 km
2018/11/15 04:00 LEJR 150400Z AUTO VRB01KT 9999 NCD 12/11 Q1013
 
LERT - Rota, Spain
Distancia de la estación: SSO 89km
Actualización: 15/11/2018 05:00
Despejado
Despejado
 Viento de ESE
Viento: ESE 9 km/h
Temperatura: 15°C
Rocío: 14°C
Humedad: 94%
Barómetro: 1013 hPa
Resumen: Despejado
Visibilidad: mayor de 10 km
2018/11/15 04:00 LERT 150400Z 12005KT CAVOK 15/14 Q1013 NOSIG
LEMG - Málaga, Spain
Distancia de la estación: ESE 157km
Actualización: 15/11/2018 05:00
Lluvia débil, Parcialmente nuboso
Lluvia débil, Parcialmente nuboso
 Viento de S
Viento: S 7 km/h
Temperatura: 15°C
Rocío: 13°C
Humedad: 88%
Barómetro: 1014 hPa
Resumen: Lluvia débil
Nubes: Parcialmente nuboso
Visibilidad: 10 km
Detalles de las nubes: Poco nuboso 610 m
Parcialmente nuboso 1829 m
2018/11/15 04:00 LEMG 150400Z 19004KT 150V220 9999 -RA FEW020 SCT060 15/13 Q1014 RERA NOSIG
LEBA - Córdoba, Spain
Distancia de la estación: ENE 115km
Actualización: 15/11/2018 05:00
Despejado
Despejado
 Viento de variable
Viento: variable 4 km/h
Temperatura: 11°C
Rocío: 10°C
Humedad: 94%
Barómetro: 1014 hPa
Nubes: Despejado
Visibilidad: 10 km
2018/11/15 04:00 LEBA 150400Z AUTO VRB02KT 9999 NCD 11/10 Q1014
 
LEGR - Granada, Spain
Distancia de la estación: E 198km
Actualización: 15/11/2018 05:00
Parcialmente nuboso
Parcialmente nuboso
 Viento de S
Viento: S 9 km/h
Temperatura: 9°C
Sensación térmica: 7°C
Rocío: 8°C
Humedad: 94%
Barómetro: 1015 hPa
Nubes: Parcialmente nuboso
Visibilidad: 10 km
Detalles de las nubes: Parcialmente nuboso 3353 m
2018/11/15 04:00 LEGR 150400Z AUTO 18005KT 9999 SCT110 09/08 Q1015
LEAM - Almería, Spain
Distancia de la estación: E 326km
Actualización: 15/11/2018 05:00
Despejado
Despejado
 Viento de variable
Viento: variable 13 km/h
Temperatura: 18°C
Rocío: 12°C
Humedad: 68%
Barómetro: 1013 hPa
Resumen: Despejado
Visibilidad: mayor de 10 km
2018/11/15 04:00 LEAM 150400Z VRB07KT CAVOK 18/12 Q1013
LEMD - Madrid/Barajas, Spain
Distancia de la estación: NNE 402km
Actualización: 15/11/2018 05:00
Cubierto
Cubierto
 Viento de calm
Viento: Calma
Temperatura: 12°C
Rocío: 12°C
Humedad: 100%
Barómetro: 1018 hPa
Nubes: Cubierto
Visibilidad: 10 km
Detalles de las nubes: Cubierto 914 m
2018/11/15 04:00 LEMD 150400Z 00000KT 9999 OVC030 12/12 Q1018 NOSIG
 
LEVD - Valladolid, Spain
Distancia de la estación: N 492km
Actualización: 14/11/2018 21:30
NOT Current
Despejado
Despejado
 Viento de ENE
Viento: ENE 11 km/h
Temperatura: 9°C
Sensación térmica: 7°C
Rocío: 7°C
Humedad: 87%
Barómetro: 1019 hPa
Resumen: Despejado
Visibilidad: mayor de 10 km
2018/11/14 20:30 LEVD 142030Z 06006KT CAVOK 09/07 Q1019
LEBL - Barcelona, Spain
Distancia de la estación: NE 816km
Actualización: 15/11/2018 05:00
Poco nuboso
Poco nuboso
 Viento de NE
Viento: NE 9 km/h
Temperatura: 17°C
Rocío: 16°C
Humedad: 94%
Barómetro: 1019 hPa
Nubes: Poco nuboso
Visibilidad: 9 km
Detalles de las nubes: Poco nuboso 244 m
Muy nuboso 396 m
Poco nuboso 457 m
2018/11/15 04:00 LEBL 150400Z 04005KT 9000 FEW008 BKN013 FEW015CB 17/16 Q1019 NOSIG
LEVC - Valencia, Spain
Distancia de la estación: ENE 535km
Actualización: 15/11/2018 05:00
Lluvia débil, Parcialmente nuboso
Lluvia débil, Parcialmente nuboso
 Viento de NO
Viento: NO 9 km/h
Temperatura: 15°C
Rocío: 14°C
Humedad: 94%
Barómetro: 1018 hPa
Resumen: Lluvia débil
Nubes: Parcialmente nuboso
Visibilidad: 10 km
Detalles de las nubes: Poco nuboso 457 m
Parcialmente nuboso 1524 m
2018/11/15 04:00 LEVC 150400Z 31005KT 9999 -RA FEW015 SCT050 15/14 Q1018 TEMPO 4000 SHRA FEW015CB